Time;durP1;ratioP1;P1;durP2;ratioP2;P2;SDS_P1;SDS_P2;PMS_P1;PMS_P2;Temp;Humidity;BMP_temperature;BMP_pressure;BME280_temperature;BME280_humidity;BME280_pressure;Samples;Min_cycle;Max_cycle;Signal;HPM_P1;HPM_P2
2023/06/11 09:10:20;;;;;;;;;18.75;18.75;;;;;30.79;43.63;100941.47;4961137;28;71674;-72
2023/06/11 09:12:46;;;;;;;;;17.50;15.75;;;;;30.61;44.13;100945.25;4960013;28;45458;-72
2023/06/11 09:15:13;;;;;;;;;19.50;17.25;;;;;30.57;44.34;100960.06;4962268;28;45372;-72
2023/06/11 09:17:46;;;;;;;;;18.50;18.50;;;;;30.45;44.72;100980.72;4961832;28;45506;-73
2023/06/11 09:20:13;;;;;;;;;23.25;22.50;;;;;30.27;44.67;100968.97;4961896;28;46032;-73
2023/06/11 09:22:41;;;;;;;;;21.00;19.00;;;;;30.25;46.12;100996.34;4960443;28;47101;-74
2023/06/11 09:25:19;;;;;;;;;20.50;19.25;;;;;30.06;45.90;100971.00;4960270;28;45470;-73
2023/06/11 09:27:45;;;;;;;;;21.75;20.75;;;;;29.97;45.76;100979.66;4960156;28;45390;-74
2023/06/11 09:30:16;;;;;;;;;27.00;24.75;;;;;29.81;45.75;100977.78;4962098;28;45361;-74
2023/06/11 09:32:43;;;;;;;;;26.00;25.25;;;;;29.76;45.84;100981.72;4960241;28;47300;-72
2023/06/11 09:35:10;;;;;;;;;28.50;24.00;;;;;29.69;46.00;101000.25;4961272;28;45185;-73
2023/06/11 09:37:49;;;;;;;;;23.00;23.00;;;;;29.27;46.75;100954.25;4960813;28;45284;-74
2023/06/11 09:40:17;;;;;;;;;23.75;23.50;;;;;29.48;46.29;101010.34;4976736;28;45798;-74
2023/06/11 09:42:44;;;;;;;;;23.75;23.50;;;;;29.29;47.48;101010.41;4961251;28;45521;-73
2023/06/11 09:45:16;;;;;;;;;27.00;23.25;;;;;28.97;47.85;100977.47;4958515;28;45352;-73
2023/06/11 09:47:43;;;;;;;;;25.00;24.00;;;;;28.91;47.86;100988.69;4975830;28;45333;-74
2023/06/11 09:50:11;;;;;;;;;25.75;23.25;;;;;29.07;47.12;101013.31;4961798;28;45472;-75
2023/06/11 09:52:38;;;;;;;;;27.75;26.00;;;;;28.97;47.97;101004.69;4961294;28;45811;-75
2023/06/11 09:55:07;;;;;;;;;28.50;28.25;;;;;28.96;48.19;101010.19;4960520;28;45329;-75
2023/06/11 09:57:33;;;;;;;;;27.00;23.75;;;;;28.98;48.28;101011.91;4961551;28;45241;-75
2023/06/11 10:00:00;;;;;;;;;25.00;23.67;;;;;28.86;48.70;101006.19;4961156;28;45515;-74
2023/06/11 10:02:26;;;;;;;;;29.33;28.33;;;;;28.75;48.33;100998.53;4960474;28;47112;-73
2023/06/11 10:04:51;;;;;;;;;23.67;23.67;;;;;28.74;48.87;101018.56;4960826;28;46339;-74
2023/06/11 10:07:20;;;;;;;;;29.33;25.67;;;;;28.65;48.72;101022.59;4960662;28;45507;-74
2023/06/11 10:09:50;;;;;;;;;25.33;23.67;;;;;28.40;48.19;100994.72;4977124;28;46999;-74
2023/06/11 10:12:16;;;;;;;;;30.33;28.67;;;;;28.28;48.49;101002.50;4956409;28;45568;-74
2023/06/11 10:14:49;;;;;;;;;30.00;28.00;;;;;28.33;49.07;101027.66;4958771;28;45501;-74
2023/06/11 10:17:15;;;;;;;;;28.33;28.00;;;;;28.14;51.04;101032.16;4967653;28;45458;-75
2023/06/11 10:19:41;;;;;;;;;31.67;28.00;;;;;28.04;49.75;101011.81;4960686;28;45527;-75
2023/06/11 10:22:06;;;;;;;;;32.00;29.33;;;;;27.93;50.41;101017.72;4954566;28;45389;-74
2023/06/11 10:24:32;;;;;;;;;34.00;31.00;;;;;27.97;49.91;101022.03;4960522;28;45483;-74
2023/06/11 10:27:12;;;;;;;;;26.67;26.67;;;;;27.84;50.20;100997.28;4960625;28;45508;-74
2023/06/11 10:29:41;;;;;;;;;31.00;29.00;;;;;28.12;49.96;101042.25;4957849;28;45293;-75
2023/06/11 10:32:16;;;;;;;;;27.00;27.00;;;;;28.09;50.12;101021.53;4958798;28;45486;-75
2023/06/11 10:34:42;;;;;;;;;30.67;28.33;;;;;28.25;50.22;101038.00;4958738;28;45463;-75
2023/06/11 10:37:09;;;;;;;;;31.00;29.00;;;;;28.27;49.20;101018.91;4961758;28;45482;-75
2023/06/11 10:39:34;;;;;;;;;33.33;29.67;;;;;28.44;49.52;101042.63;4978101;28;45535;-75
2023/06/11 10:42:01;;;;;;;;;30.00;28.67;;;;;28.50;49.37;101018.75;4959700;28;47019;-75
2023/06/11 10:44:29;;;;;;;;;35.33;32.00;;;;;28.95;48.43;101036.53;4960167;28;45419;-75
2023/06/11 10:46:54;;;;;;;;;29.67;29.67;;;;;29.48;47.75;101026.69;4975089;28;45406;-74
2023/06/11 10:49:26;;;;;;;;;32.00;30.00;;;;;29.95;46.96;101041.59;4960334;28;45546;-76
2023/06/11 10:51:52;;;;;;;;;35.00;31.67;;;;;30.35;46.42;101034.91;4956972;28;46792;-75
2023/06/11 10:54:32;;;;;;;;;30.00;28.00;;;;;30.59;45.36;100982.69;4959991;28;45309;-75
2023/06/11 10:57:00;;;;;;;;;34.50;29.75;;;;;31.04;44.63;101017.41;4960913;28;45289;-75
2023/06/11 10:59:25;;;;;;;;;36.33;31.67;;;;;31.26;43.62;101013.41;4960160;28;45371;-75
2023/06/11 11:01:52;;;;;;;;;29.00;26.50;;;;;31.42;44.18;101028.88;4980977;28;47035;-75
2023/06/11 11:04:18;;;;;;;;;31.67;29.67;;;;;31.48;44.50;101011.22;4957889;28;45391;-75
2023/06/11 11:06:43;;;;;;;;;37.67;32.33;;;;;31.42;43.31;101012.47;4972547;28;45248;-75
2023/06/11 11:09:08;;;;;;;;;39.00;35.00;;;;;31.33;43.95;101001.16;4964398;28;45286;-74
2023/06/11 11:11:34;;;;;;;;;31.75;30.75;;;;;31.47;43.29;100997.63;4954140;28;45318;-74
2023/06/11 11:14:00;;;;;;;;;33.00;29.75;;;;;31.73;43.11;101002.38;4972502;28;45396;-75
2023/06/11 11:16:25;;;;;;;;;35.25;31.75;;;;;31.99;42.55;101011.78;4977643;28;45468;-72
2023/06/11 11:18:51;;;;;;;;;29.75;28.50;;;;;32.27;42.87;101026.47;4960270;28;45550;-75
2023/06/11 11:21:18;;;;;;;;;29.00;27.50;;;;;32.42;41.28;100999.97;4960750;28;45377;-73
2023/06/11 11:23:50;;;;;;;;;36.00;31.00;;;;;32.83;40.74;101013.75;4959512;28;45265;-75
2023/06/11 11:26:17;;;;;;;;;35.25;29.00;;;;;32.98;40.73;101007.25;4960475;28;45483;-74
2023/06/11 11:28:42;;;;;;;;;32.25;30.00;;;;;33.06;41.14;101020.47;4958935;28;45337;-75
2023/06/11 11:31:10;;;;;;;;;28.25;27.00;;;;;33.16;41.18;101035.34;4960561;28;46152;-74
2023/06/11 11:33:36;;;;;;;;;29.75;28.50;;;;;33.06;40.39;101033.28;4959850;28;45310;-75
2023/06/11 11:36:03;;;;;;;;;29.50;28.00;;;;;32.97;39.50;101026.53;4960496;28;45344;-74
2023/06/11 11:38:34;;;;;;;;;24.25;23.00;;;;;33.00;40.76;101042.81;4959444;28;45436;-75
2023/06/11 11:40:59;;;;;;;;;35.25;29.50;;;;;32.76;40.32;101028.81;4959803;28;46422;-75
2023/06/11 11:43:25;;;;;;;;;29.75;29.00;;;;;32.59;40.59;101039.97;4959431;28;52428;-75
2023/06/11 11:45:50;;;;;;;;;27.00;26.50;;;;;32.29;40.50;101027.22;4959012;28;45374;-75
2023/06/11 11:48:16;;;;;;;;;28.25;25.25;;;;;32.27;40.66;101042.88;4975153;28;45606;-74
2023/06/11 11:50:45;;;;;;;;;27.25;24.75;;;;;32.15;40.60;101032.69;4958182;28;47117;-75
2023/06/11 11:53:15;;;;;;;;;27.00;24.00;;;;;31.95;41.29;101017.53;4959215;28;45315;-74
2023/06/11 11:55:49;;;;;;;;;28.50;28.00;;;;;31.83;41.55;101021.84;4955763;28;45285;-74
2023/06/11 11:58:15;;;;;;;;;28.25;24.75;;;;;31.83;41.28;101011.81;4953934;28;47125;-75
2023/06/11 12:00:51;;;;;;;;;57.00;46.00;;;;;31.77;41.37;101009.44;4959800;28;46695;-75
2023/06/11 12:03:22;;;;;;;;;29.25;27.50;;;;;31.74;41.18;101003.31;4957239;28;45280;-74
2023/06/11 12:06:02;;;;;;;;;28.75;28.50;;;;;31.79;41.16;101003.88;4959861;28;45293;-75
2023/06/11 12:08:28;;;;;;;;;26.75;26.50;;;;;31.78;40.93;100999.38;4957278;28;47041;-74
2023/06/11 12:10:55;;;;;;;;;28.50;25.50;;;;;31.93;40.64;100998.50;4953291;28;45561;-73
2023/06/11 12:13:20;;;;;;;;;28.75;26.75;;;;;32.14;41.15;101004.47;4959399;28;45397;-75
2023/06/11 12:15:46;;;;;;;;;26.25;25.00;;;;;32.16;40.78;101007.13;4958844;28;45569;-73
2023/06/11 12:18:11;;;;;;;;;25.25;24.75;;;;;32.17;40.56;100997.91;4961140;28;45443;-75
2023/06/11 12:20:36;;;;;;;;;27.25;26.75;;;;;31.95;40.20;100957.38;4958036;28;46567;-74
2023/06/11 12:23:03;;;;;;;;;27.50;25.50;;;;;32.05;39.95;100970.38;4952092;28;45407;-74
2023/06/11 12:25:30;;;;;;;;;29.25;28.25;;;;;32.16;40.68;100991.56;4959502;28;45523;-74
2023/06/11 12:27:55;;;;;;;;;27.50;27.50;;;;;32.04;39.86;100981.38;4956870;28;45940;-75
2023/06/11 12:30:21;;;;;;;;;26.25;26.25;;;;;31.83;40.31;100959.84;4959321;28;45286;-73
2023/06/11 12:32:46;;;;;;;;;29.00;28.00;;;;;31.85;40.77;100988.00;4958978;28;45633;-74
2023/06/11 12:35:12;;;;;;;;;27.75;27.75;;;;;31.57;40.84;100977.88;4959535;28;45258;-74
2023/06/11 12:37:37;;;;;;;;;29.00;24.50;;;;;31.44;41.06;100977.72;4955251;28;45530;-74
2023/06/11 12:40:04;;;;;;;;;26.00;23.00;;;;;31.27;41.67;100998.81;4958784;28;47222;-76
2023/06/11 12:42:30;;;;;;;;;33.75;30.25;;;;;30.88;42.55;100991.97;4958021;28;45197;-74
2023/06/11 12:44:56;;;;;;;;;31.75;29.50;;;;;30.65;42.16;101002.31;4959076;28;45324;-75
2023/06/11 12:47:21;;;;;;;;;34.00;31.75;;;;;30.23;42.85;100981.03;4959483;28;45347;-74
2023/06/11 12:49:46;;;;;;;;;32.75;30.75;;;;;30.00;44.29;101010.41;4958725;28;46272;-76
2023/06/11 12:52:12;;;;;;;;;29.00;28.50;;;;;29.58;46.59;100991.72;4959252;28;45574;-75
2023/06/11 12:54:38;;;;;;;;;40.00;34.67;;;;;29.12;50.67;100984.03;4958708;28;45432;-79
2023/06/11 12:57:04;;;;;;;;;48.67;40.00;;;;;28.82;49.26;101013.63;4957944;28;47541;-81
2023/06/11 12:59:30;;;;;;;;;43.33;36.33;;;;;28.40;50.34;100994.72;4958870;28;45675;-81
2023/06/11 13:01:55;;;;;;;;;54.33;41.00;;;;;28.08;53.63;100994.41;4958067;28;45521;-80
2023/06/11 13:04:20;;;;;;;;;49.00;39.33;;;;;27.76;52.94;100984.94;4958880;28;45431;-79
2023/06/11 13:06:46;;;;;;;;;49.00;40.67;;;;;27.41;54.99;100944.78;4958972;28;45333;-79
2023/06/11 13:09:11;;;;;;;;;52.67;42.67;;;;;27.52;53.55;100990.50;4976394;28;49311;-78
2023/06/11 13:11:37;;;;;;;;;47.67;40.33;;;;;27.34;54.63;100986.75;4960252;28;45523;-79
2023/06/11 13:14:04;;;;;;;;;49.67;40.33;;;;;27.17;56.24;100992.88;4976493;28;45329;-77
2023/06/11 13:16:30;;;;;;;;;51.00;42.33;;;;;27.07;56.31;100986.03;4964052;28;45431;-76
2023/06/11 13:18:59;;;;;;;;;51.00;41.67;;;;;26.98;57.66;100999.97;4963151;28;45602;-78
2023/06/11 13:21:25;;;;;;;;;53.00;41.67;;;;;26.94;61.88;101031.78;4955446;28;45541;-81
2023/06/11 13:23:51;;;;;;;;;57.00;45.00;;;;;26.59;58.38;101002.44;4957120;28;45444;-78
2023/06/11 13:26:16;;;;;;;;;47.00;41.00;;;;;26.28;61.22;101012.59;4974405;28;45917;-77
2023/06/11 13:28:43;;;;;;;;;55.33;45.00;;;;;26.00;67.57;101006.44;4960278;28;45373;-78
2023/06/11 13:31:08;;;;;;;;;58.33;46.00;;;;;25.55;96.30;101042.31;4962008;28;45167;-75
2023/06/11 13:33:34;;;;;;;;;63.33;51.00;;;;;25.05;100.00;101050.22;4960497;28;45530;-74
2023/06/11 13:35:59;;;;;;;;;64.67;49.33;;;;;24.11;100.00;101107.88;4962086;28;47779;-74
2023/06/11 13:38:25;;;;;;;;;46.33;37.33;;;;;23.52;100.00;101077.84;4978299;28;47971;-74
2023/06/11 13:40:52;;;;;;;;;34.67;31.67;;;;;22.62;100.00;101016.13;4962194;28;45233;-74
2023/06/11 13:43:17;;;;;;;;;33.33;31.00;;;;;22.22;100.00;101064.56;4961889;28;45526;-73
2023/06/11 13:45:44;;;;;;;;;43.33;36.33;;;;;21.83;100.00;100989.88;4960593;28;45524;-72
2023/06/11 13:48:14;;;;;;;;;35.33;31.33;;;;;21.34;100.00;100962.94;4976512;28;46275;-72
2023/06/11 13:50:40;;;;;;;;;19.00;17.00;;;;;20.88;100.00;100901.91;4962062;28;45447;-74
2023/06/11 13:53:06;;;;;;;;;25.33;22.67;;;;;21.33;100.00;101058.88;4960604;28;45670;-74
2023/06/11 13:55:31;;;;;;;;;26.00;23.67;;;;;21.37;100.00;100936.03;4961496;28;48461;-74
2023/06/11 13:57:56;;;;;;;;;33.67;29.00;;;;;20.86;100.00;100676.22;4961067;28;45622;-75
2023/06/11 14:00:23;;;;;;;;;33.67;30.00;;;;;21.08;100.00;100601.41;4959167;28;45467;-75
2023/06/11 14:02:48;;;;;;;;;35.00;33.00;;;;;21.16;100.00;100516.13;4961430;28;45432;-77
2023/06/11 14:06:12;;;;;;;;;36.33;32.67;;;;;-145.45;100.00;57426.63;4961490;28;45423;-77
2023/06/11 14:12:37;;;;;;;;;;;;;;;23.63;100.00;101039.81;2;279079352;279079352;-73
2023/06/11 14:15:02;;;;;;;;;50.67;41.00;;;;;22.45;100.00;101019.19;4957725;28;45423;-72
2023/06/11 14:17:28;;;;;;;;;58.25;45.25;;;;;23.82;100.00;101021.34;4963597;28;46079;-72
2023/06/11 14:19:54;;;;;;;;;63.50;49.00;;;;;22.12;100.00;101021.63;4960329;28;45444;-73
2023/06/11 14:22:20;;;;;;;;;66.75;51.75;;;;;22.60;100.00;101023.34;4960404;28;45420;-74
2023/06/11 14:24:46;;;;;;;;;68.00;51.00;;;;;22.83;100.00;101020.16;4960209;28;45234;-74
2023/06/11 14:27:11;;;;;;;;;72.00;57.50;;;;;23.14;100.00;101041.94;4569385;28;9508108;-75
2023/06/11 14:29:37;;;;;;;;;70.50;55.50;;;;;23.59;100.00;101032.72;4960154;28;45270;-78
2023/06/11 14:32:03;;;;;;;;;68.25;53.75;;;;;23.66;100.00;101005.50;4951731;28;45373;-79
2023/06/11 14:34:29;;;;;;;;;62.75;50.25;;;;;24.13;100.00;101003.34;4959401;28;45428;-79
2023/06/11 14:36:54;;;;;;;;;64.25;51.50;;;;;24.81;100.00;100977.03;4961689;28;45270;-79
2023/06/11 14:39:20;;;;;;;;;61.00;47.50;;;;;25.07;100.00;100984.31;4960604;28;45529;-78
2023/06/11 14:41:45;;;;;;;;;58.67;47.33;;;;;25.51;100.00;101030.66;4960115;28;45352;-79
2023/06/11 14:44:10;;;;;;;;;60.00;46.67;;;;;25.79;100.00;101011.63;4980062;28;45298;-77
2023/06/11 14:46:36;;;;;;;;;59.00;47.00;;;;;25.55;100.00;101016.09;4958921;28;45536;-76
2023/06/11 14:49:01;;;;;;;;;50.67;39.67;;;;;25.49;100.00;101021.75;4951881;28;46453;-75
2023/06/11 14:51:27;;;;;;;;;50.67;41.33;;;;;25.07;100.00;101011.38;4960375;28;45233;-77
2023/06/11 14:53:53;;;;;;;;;51.33;42.67;;;;;25.04;100.00;101027.69;4960360;28;45543;-72
2023/06/11 14:56:18;;;;;;;;;50.00;40.33;;;;;24.97;100.00;101027.00;4961107;28;45362;-72
2023/06/11 14:58:44;;;;;;;;;40.00;34.33;;;;;25.29;100.00;101016.09;4960402;28;46307;-72
2023/06/11 15:01:10;;;;;;;;;41.00;35.33;;;;;25.69;100.00;101018.34;4961292;28;45287;-72
2023/06/11 15:03:35;;;;;;;;;48.67;39.00;;;;;26.18;100.00;101043.69;4960725;28;45209;-72
2023/06/11 15:06:01;;;;;;;;;43.67;35.00;;;;;26.22;100.00;101026.38;4960805;28;45455;-72
2023/06/11 15:08:27;;;;;;;;;43.00;34.67;;;;;26.31;100.00;101036.00;4959927;28;45419;-73
2023/06/11 15:10:52;;;;;;;;;46.33;38.33;;;;;26.15;100.00;101013.13;4972455;28;45372;-72
2023/06/11 15:13:18;;;;;;;;;37.67;33.67;;;;;25.86;100.00;101010.53;4957735;28;46124;-72
2023/06/11 15:15:43;;;;;;;;;43.67;36.00;;;;;25.82;100.00;101011.56;4960815;28;45567;-72
2023/06/11 15:18:09;;;;;;;;;39.33;35.00;;;;;25.70;100.00;101020.09;4963675;28;45384;-72
2023/06/11 15:20:35;;;;;;;;;37.67;32.33;;;;;25.55;100.00;101007.09;4959550;28;45341;-72
2023/06/11 15:23:00;;;;;;;;;32.33;30.33;;;;;25.78;100.00;101004.47;4975138;28;45338;-72
2023/06/11 15:25:26;;;;;;;;;33.67;30.33;;;;;26.33;100.00;101021.44;4960310;28;54886;-72
2023/06/11 15:27:51;;;;;;;;;36.67;33.33;;;;;26.22;100.00;101020.97;4960240;28;45486;-71
2023/06/11 15:30:17;;;;;;;;;43.33;36.00;;;;;26.64;100.00;101052.84;4959519;28;45582;-72
2023/06/11 15:32:43;;;;;;;;;48.67;39.00;;;;;26.38;100.00;101042.06;4974406;28;45268;-71
2023/06/11 15:35:08;;;;;;;;;47.33;37.33;;;;;26.42;100.00;101058.16;4960208;28;45527;-71
2023/06/11 15:37:35;;;;;;;;;47.00;39.33;;;;;27.15;100.00;101043.59;4960768;28;45373;-71
2023/06/11 15:40:00;;;;;;;;;45.33;37.33;;;;;26.19;100.00;101042.75;4976428;28;45402;-71
2023/06/11 15:42:25;;;;;;;;;47.33;40.33;;;;;26.00;100.00;101028.13;4960758;28;45199;-71
2023/06/11 15:44:52;;;;;;;;;47.00;39.67;;;;;26.01;100.00;101033.47;4959807;28;45538;-71
2023/06/11 15:47:18;;;;;;;;;48.00;40.33;;;;;25.85;100.00;101043.06;4960637;28;45356;-71
2023/06/11 15:49:43;;;;;;;;;48.67;40.00;;;;;25.87;100.00;101042.06;4957959;28;45291;-71
2023/06/11 15:52:08;;;;;;;;;46.33;39.67;;;;;25.80;100.00;101039.63;4960776;28;45334;-72
2023/06/11 15:54:34;;;;;;;;;47.00;39.67;;;;;26.36;100.00;101041.25;4959291;28;45585;-71
2023/06/11 15:57:00;;;;;;;;;47.00;37.33;;;;;25.82;100.00;101030.50;4975222;28;48144;-71
2023/06/11 15:59:25;;;;;;;;;41.33;35.00;;;;;25.80;100.00;101043.22;4959547;28;45451;-71
2023/06/11 16:01:51;;;;;;;;;43.67;36.67;;;;;25.86;100.00;101020.47;4959967;28;45244;-74
2023/06/11 16:04:16;;;;;;;;;47.33;38.33;;;;;25.99;100.00;101029.94;4959128;28;48410;-75
2023/06/11 16:06:42;;;;;;;;;48.67;38.67;;;;;26.17;100.00;101038.34;4960045;28;45354;-74
2023/06/11 16:09:08;;;;;;;;;40.33;34.00;;;;;26.29;100.00;101024.31;4959316;28;45390;-75
2023/06/11 16:11:34;;;;;;;;;38.00;33.00;;;;;26.40;100.00;101023.94;4954506;28;45268;-75
2023/06/11 16:14:00;;;;;;;;;38.67;33.67;;;;;26.56;100.00;101030.56;4959528;28;45393;-75
2023/06/11 16:16:25;;;;;;;;;38.33;32.33;;;;;26.46;100.00;101019.13;4960050;28;45688;-75
2023/06/11 16:18:50;;;;;;;;;37.33;32.00;;;;;26.61;100.00;101046.63;4953754;28;45444;-75
2023/06/11 16:21:16;;;;;;;;;38.33;34.33;;;;;26.53;100.00;101033.41;4959921;28;45493;-75
2023/06/11 16:23:41;;;;;;;;;37.33;33.33;;;;;26.47;100.00;101030.91;4958787;28;45585;-75
2023/06/11 16:26:06;;;;;;;;;36.67;33.00;;;;;26.44;100.00;101030.97;4959932;28;46749;-75
2023/06/11 16:28:32;;;;;;;;;32.67;31.33;;;;;26.42;100.00;101035.59;4958767;28;45431;-75
2023/06/11 16:30:57;;;;;;;;;39.67;34.33;;;;;26.35;100.00;101040.34;4958576;28;45616;-75
2023/06/11 16:33:22;;;;;;;;;36.67;32.00;;;;;26.03;100.00;101022.59;4946584;28;45802;-75
2023/06/11 16:35:48;;;;;;;;;37.67;33.33;;;;;26.01;100.00;101024.47;4959495;28;46484;-75
2023/06/11 16:38:13;;;;;;;;;42.00;34.00;;;;;25.87;100.00;101027.66;4953095;28;45456;-75
2023/06/11 16:40:39;;;;;;;;;36.00;32.67;;;;;25.55;100.00;100994.44;4959381;28;45471;-75
2023/06/11 16:43:04;;;;;;;;;31.67;29.00;;;;;25.29;100.00;101008.88;4959114;28;45569;-75
2023/06/11 16:45:30;;;;;;;;;35.00;32.00;;;;;25.42;100.00;100999.38;4960446;28;45408;-75
2023/06/11 16:47:56;;;;;;;;;32.00;30.33;;;;;25.36;100.00;101017.66;4977214;28;45373;-75
2023/06/11 16:50:22;;;;;;;;;31.67;30.33;;;;;25.32;100.00;101014.19;4963071;28;45454;-75
2023/06/11 16:52:51;;;;;;;;;30.67;28.00;;;;;25.26;100.00;100992.72;4961967;28;45608;-75
2023/06/11 16:55:22;;;;;;;;;34.00;31.00;;;;;25.33;100.00;100991.59;4962359;28;45330;-74
2023/06/11 16:57:48;;;;;;;;;31.33;30.00;;;;;25.42;100.00;101012.91;4976861;28;45202;-75
2023/06/11 17:00:16;;;;;;;;;25.33;25.33;;;;;25.20;100.00;100983.00;4962700;28;45186;-75
2023/06/11 17:02:43;;;;;;;;;33.67;30.33;;;;;25.60;100.00;101013.22;4976839;28;45932;-75
2023/06/11 17:05:08;;;;;;;;;32.33;30.33;;;;;25.38;100.00;101021.22;4962531;28;45343;-74
2023/06/11 17:07:34;;;;;;;;;30.67;29.00;;;;;25.21;100.00;100981.19;4962631;28;45261;-74
2023/06/11 17:09:59;;;;;;;;;29.00;26.67;;;;;25.39;100.00;101012.16;4976631;28;45540;-75
2023/06/11 17:12:25;;;;;;;;;32.33;29.00;;;;;25.53;100.00;101023.38;4956865;28;45574;-74
2023/06/11 17:14:50;;;;;;;;;26.67;26.67;;;;;25.55;100.00;101002.56;4961930;28;45337;-75
2023/06/11 17:17:15;;;;;;;;;30.33;28.00;;;;;25.64;100.00;101023.03;4965619;28;45258;-75
2023/06/11 17:19:44;;;;;;;;;52.00;41.33;;;;;25.55;100.00;100993.56;4962006;28;45543;-75
2023/06/11 17:22:13;;;;;;;;;27.33;25.33;;;;;25.66;89.03;101023.88;4961034;28;45255;-75
2023/06/11 17:24:38;;;;;;;;;26.67;23.00;;;;;25.64;85.23;101026.59;4960056;28;46565;-75
2023/06/11 17:27:04;;;;;;;;;32.00;26.33;;;;;25.62;83.13;101036.59;4959090;28;45439;-75
2023/06/11 17:29:29;;;;;;;;;25.00;23.67;;;;;25.49;80.38;101020.81;4962160;28;45429;-75
2023/06/11 17:31:54;;;;;;;;;26.67;25.00;;;;;25.43;78.96;101016.50;4962121;28;45360;-75
2023/06/11 17:34:20;;;;;;;;;23.67;23.67;;;;;25.14;79.00;100991.31;4961823;28;46268;-75
2023/06/11 17:36:45;;;;;;;;;27.33;27.33;;;;;25.14;77.23;101004.84;4962246;28;45400;-77
2023/06/11 17:39:11;;;;;;;;;29.33;26.00;;;;;25.19;74.25;101031.75;4981002;28;45448;-75
2023/06/11 17:41:36;;;;;;;;;27.33;26.00;;;;;25.26;71.62;101032.44;4961776;28;45606;-76
2023/06/11 17:44:01;;;;;;;;;29.67;28.00;;;;;25.11;71.87;101012.16;4959639;28;46658;-75
2023/06/11 17:46:27;;;;;;;;;25.00;25.00;;;;;25.20;78.27;101038.94;4961863;28;45313;-77
2023/06/11 17:48:53;;;;;;;;;33.33;31.00;;;;;25.07;68.30;101024.91;4961466;28;48782;-76
2023/06/11 17:51:18;;;;;;;;;24.67;24.00;;;;;25.20;77.68;101047.91;4961834;28;45436;-76
2023/06/11 17:53:43;;;;;;;;;26.67;25.33;;;;;25.16;71.16;101054.38;4952254;28;45581;-77
2023/06/11 17:56:09;;;;;;;;;30.33;27.00;;;;;24.97;71.21;101045.94;4961554;28;45147;-76
2023/06/11 17:58:39;;;;;;;;;30.33;28.33;;;;;24.96;76.77;101038.75;4961204;28;45389;-77
2023/06/11 18:01:05;;;;;;;;;28.67;26.67;;;;;24.87;72.19;101043.56;4977504;28;46401;-76
2023/06/11 18:03:30;;;;;;;;;26.67;26.67;;;;;24.94;75.11;101070.38;4959905;28;46831;-76
2023/06/11 18:05:55;;;;;;;;;26.33;25.67;;;;;24.94;76.59;101094.72;4961850;28;45312;-77
2023/06/11 18:08:21;;;;;;;;;24.33;22.00;;;;;24.84;72.01;101081.50;4961328;28;45735;-77
2023/06/11 18:10:46;;;;;;;;;28.00;26.00;;;;;24.73;75.12;101066.50;4960198;28;46284;-75
2023/06/11 18:13:11;;;;;;;;;27.33;25.67;;;;;24.81;71.94;101085.19;4961623;28;47386;-75
2023/06/11 18:15:37;;;;;;;;;25.00;22.67;;;;;24.76;72.38;101095.28;4961646;28;45322;-76
2023/06/11 18:18:03;;;;;;;;;27.33;25.00;;;;;24.77;79.15;101083.53;4961348;28;45396;-76
2023/06/11 18:20:28;;;;;;;;;25.67;21.00;;;;;24.74;76.08;101097.13;4961419;28;45376;-75
2023/06/11 18:22:54;;;;;;;;;54.00;42.33;;;;;24.66;75.41;101081.13;4960981;28;45888;-75
2023/06/11 18:25:19;;;;;;;;;25.67;24.33;;;;;24.36;75.46;101036.94;4959715;28;45489;-77
2023/06/11 18:27:44;;;;;;;;;28.33;27.00;;;;;24.52;68.90;101067.16;4961406;28;45230;-78
2023/06/11 18:30:10;;;;;;;;;34.33;30.00;;;;;24.40;70.02;101054.84;4960782;28;46750;-77
2023/06/11 18:32:37;;;;;;;;;22.33;22.33;;;;;24.49;76.73;101072.63;4961597;28;45492;-77
2023/06/11 18:35:03;;;;;;;;;23.00;22.00;;;;;24.43;79.75;101062.91;4960769;28;45209;-77
2023/06/11 18:37:28;;;;;;;;;21.33;20.00;;;;;24.37;74.83;101056.72;4961729;28;45324;-77
2023/06/11 18:39:54;;;;;;;;;18.33;18.33;;;;;24.35;70.52;101054.09;4959163;28;45416;-78
2023/06/11 18:42:20;;;;;;;;;20.67;18.00;;;;;24.27;73.08;101043.50;4961468;28;45509;-76
2023/06/11 18:44:45;;;;;;;;;23.33;23.00;;;;;24.28;73.82;101049.78;4960717;28;45290;-75
2023/06/11 18:47:12;;;;;;;;;20.67;20.33;;;;;24.23;77.90;101036.41;4961551;28;45355;-79
2023/06/11 18:49:38;;;;;;;;;18.00;18.00;;;;;24.24;77.04;101054.38;4960484;28;45457;-79
2023/06/11 18:52:05;;;;;;;;;22.67;21.00;;;;;23.94;72.29;101007.50;4975849;28;47212;-79
2023/06/11 18:54:31;;;;;;;;;25.00;22.33;;;;;24.15;75.52;101051.06;4959892;28;45404;-80
2023/06/11 18:56:57;;;;;;;;;19.33;19.33;;;;;24.13;73.16;101049.28;4961382;28;45226;-80
2023/06/11 18:59:22;;;;;;;;;22.33;21.33;;;;;23.88;71.89;101022.06;4954330;28;46067;-79
2023/06/11 19:01:47;;;;;;;;;17.00;15.00;;;;;24.11;71.63;101059.25;4960573;28;45422;-79
2023/06/11 19:04:13;;;;;;;;;26.00;22.00;;;;;24.23;71.36;101103.94;4976498;28;45480;-77
2023/06/11 19:06:38;;;;;;;;;21.00;20.00;;;;;24.16;72.83;101105.03;4961186;28;45665;-78
2023/06/11 19:09:03;;;;;;;;;24.00;21.33;;;;;23.90;72.62;101062.53;4958949;28;45471;-78
2023/06/11 19:11:29;;;;;;;;;23.33;22.33;;;;;24.19;70.96;101131.97;4953849;28;46646;-80
2023/06/11 19:13:56;;;;;;;;;25.33;23.00;;;;;24.25;74.04;101184.94;4960037;28;50874;-78
2023/06/11 19:16:21;;;;;;;;;16.00;15.67;;;;;24.05;71.97;101199.84;4961218;28;45360;-78
2023/06/11 19:18:46;;;;;;;;;9.50;8.75;;;;;23.71;71.83;101180.00;4960164;28;45250;-78
2023/06/11 19:21:12;;;;;;;;;11.00;11.00;;;;;23.57;70.70;101207.28;4960572;28;46245;-76
2023/06/11 19:23:37;;;;;;;;;11.00;10.00;;;;;23.19;71.79;101246.78;4959798;28;45448;-74
2023/06/11 19:26:02;;;;;;;;;11.00;8.00;;;;;22.43;79.04;101260.75;4975147;28;46672;-74
2023/06/11 19:28:27;;;;;;;;;13.00;8.67;;;;;21.75;90.49;101246.59;4960188;28;45391;-73
2023/06/11 19:30:53;;;;;;;;;8.00;6.33;;;;;21.13;100.00;101215.09;4958987;28;46556;-74
2023/06/11 19:33:18;;;;;;;;;9.33;7.67;;;;;20.56;100.00;101171.91;4958307;28;45419;-74
2023/06/11 19:35:43;;;;;;;;;5.33;5.33;;;;;20.38;100.00;101185.47;4960896;28;45243;-74
2023/06/11 19:38:09;;;;;;;;;8.67;8.33;;;;;20.02;100.00;101140.16;4959919;28;45413;-73
2023/06/11 19:40:34;;;;;;;;;7.00;6.00;;;;;19.90;100.00;101142.97;4960524;28;46372;-74
2023/06/11 19:42:59;;;;;;;;;9.67;8.67;;;;;19.69;100.00;101109.19;4974772;28;45466;-74
2023/06/11 19:45:25;;;;;;;;;9.00;7.00;;;;;19.59;100.00;101099.38;4960949;28;45442;-75
2023/06/11 19:47:51;;;;;;;;;11.33;8.00;;;;;19.73;100.00;101147.59;4958422;28;46166;-75
2023/06/11 19:50:20;;;;;;;;;6.33;6.33;;;;;19.42;100.00;101091.47;4960222;28;45286;-75
2023/06/11 19:52:46;;;;;;;;;8.33;6.67;;;;;19.48;100.00;101114.66;4959851;28;45286;-75
2023/06/11 19:55:16;;;;;;;;;9.33;8.67;;;;;19.28;100.00;101088.00;4957751;28;45441;-77
2023/06/11 19:57:41;;;;;;;;;10.67;10.00;;;;;19.40;100.00;101098.63;4960370;28;46073;-77
2023/06/11 20:00:07;;;;;;;;;11.67;9.67;;;;;19.41;100.00;101095.06;4959800;28;46134;-76
2023/06/11 20:02:33;;;;;;;;;6.67;6.67;;;;;19.22;100.00;101059.47;4960329;28;45394;-76
2023/06/11 20:04:58;;;;;;;;;8.33;8.00;;;;;19.27;100.00;101081.75;4959974;28;47285;-77
2023/06/11 20:07:23;;;;;;;;;10.00;10.00;;;;;19.26;100.00;101069.25;4968925;28;45426;-77
2023/06/11 20:09:49;;;;;;;;;8.67;8.67;;;;;19.34;100.00;101090.63;4958813;28;45940;-77
2023/06/11 20:12:14;;;;;;;;;9.67;8.00;;;;;19.36;100.00;101099.56;4977779;28;46194;-78
2023/06/11 20:14:39;;;;;;;;;9.67;9.33;;;;;19.17;100.00;101058.59;4959761;28;46116;-78
2023/06/11 20:17:05;;;;;;;;;8.67;8.00;;;;;19.39;100.00;101091.50;4976369;28;46634;-78